Time;durP1;ratioP1;P1;durP2;ratioP2;P2;SDS_P1;SDS_P2;PMS_P1;PMS_P2;Temp;Humidity;BMP_temperature;BMP_pressure;BME280_temperature;BME280_humidity;BME280_pressure;Samples;Min_cycle;Max_cycle;Signal;HPM_P1;HPM_P2
2021/12/14 00:01:09;;;;;;;;;;;;;;;;;;4134728;28;7183;-49
2021/12/14 00:03:31;;;;;;;;;;;;;;;;;;4135112;28;8099;-50
2021/12/14 00:05:53;;;;;;;;;;;;;;;;;;4135156;28;6990;-50
2021/12/14 00:08:15;;;;;;;;;;;;;;;;;;4135121;28;7546;-50
2021/12/14 00:11:09;;;;;;;;;;;;;;;;;;4135052;28;7002;-50
2021/12/14 00:13:45;;;;;;;;;;;;;;;;;;4135143;28;7017;-50
2021/12/14 00:16:30;;;;;;;;;;;;;;;;;;4134777;28;7011;-50
2021/12/14 00:18:52;;;;;;;;;;;;;;;;;;4134991;28;7346;-50
2021/12/14 00:21:20;;;;;;;;;;;;;;;;;;4134779;28;7219;-51
2021/12/14 00:26:20;;;;;;;;;;;;;;;;;;4134817;28;7006;-50
2021/12/14 00:28:41;;;;;;;;;;;;;;;;;;4134880;28;7008;-50
2021/12/14 00:31:04;;;;;;;;;;;;;;;;;;4134590;28;7061;-49
2021/12/14 00:33:30;;;;;;;;;;;;;;;;;;4134620;28;7027;-50
2021/12/14 00:35:51;;;;;;;;;;;;;;;;;;4134611;28;6998;-50
2021/12/14 00:38:15;;;;;;;;;;;;;;;;;;4146848;28;6990;-50
2021/12/14 00:40:37;;;;;;;;;;;;;;;;;;4134473;28;7006;-51
2021/12/14 00:43:00;;;;;;;;;;;;;;;;;;4146905;28;6987;-50
2021/12/14 00:45:21;;;;;;;;;;;;;;;;;;4134430;28;7128;-50
2021/12/14 00:47:43;;;;;;;;;;;;;;;;;;4134405;28;7019;-50
2021/12/14 00:50:04;;;;;;;;;;;;;;;;;;4134479;28;7151;-50
2021/12/14 00:52:25;;;;;;;;;;;;;;;;;;4134095;28;7168;-50
2021/12/14 00:54:48;;;;;;;;;;;;;;;;;;4134030;28;7056;-50
2021/12/14 00:57:09;;;;;;;;;;;;;;;;;;4134179;28;7608;-50
2021/12/14 00:59:31;;;;;;;;;;;;;;;;;;4146464;28;7046;-50
2021/12/14 01:01:54;;;;;;;;;;;;;;;;;;4146702;28;6990;-50
2021/12/14 01:04:17;;;;;;;;;;;;;;;;;;4134037;28;7006;-50
2021/12/14 01:06:44;;;;;;;;;;;;;;;;;;4146458;28;7187;-50
2021/12/14 01:09:05;;;;;;;;;;;;;;;;;;4134228;28;7181;-50
2021/12/14 01:11:31;;;;;;;;;;;;;;;;;;4146552;28;7167;-50
2021/12/14 01:13:57;;;;;;;;;;;;;;;;;;4132351;28;7022;-50
2021/12/14 01:16:30;;;;;;;;;;;;;;;;;;4133987;28;7030;-50
2021/12/14 01:19:02;;;;;;;;;;;;;;;;;;4146758;28;7015;-50
2021/12/14 01:21:39;;;;;;;;;;;;;;;;;;4133922;28;7149;-50
2021/12/14 01:24:05;;;;;;;;;;;;;;;;;;4148461;28;7142;-50
2021/12/14 01:26:30;;;;;;;;;;;;;;;;;;4146444;28;7015;-51
2021/12/14 01:28:51;;;;;;;;;;;;;;;;;;4133832;28;7006;-50
2021/12/14 01:31:17;;;;;;;;;;;;;;;;;;4146319;28;7006;-50
2021/12/14 01:33:39;;;;;;;;;;;;;;;;;;4145974;28;7442;-50
2021/12/14 01:36:08;;;;;;;;;;;;;;;;;;4146158;28;7006;-50
2021/12/14 01:38:44;;;;;;;;;;;;;;;;;;4145967;28;7092;-50
2021/12/14 01:41:10;;;;;;;;;;;;;;;;;;4146002;28;7176;-50
2021/12/14 01:43:36;;;;;;;;;;;;;;;;;;4133801;28;7003;-50
2021/12/14 01:46:03;;;;;;;;;;;;;;;;;;4145643;28;7007;-50
2021/12/14 01:48:26;;;;;;;;;;;;;;;;;;4132088;28;7490;-49
2021/12/14 01:51:18;;;;;;;;;;;;;;;;;;4145565;28;7538;-50
2021/12/14 01:53:52;;;;;;;;;;;;;;;;;;4132190;28;7077;-51
2021/12/14 01:56:13;;;;;;;;;;;;;;;;;;4133450;28;7152;-50
2021/12/14 01:58:38;;;;;;;;;;;;;;;;;;4145872;28;7453;-49
2021/12/14 02:01:38;;;;;;;;;;;;;;;;;;4145702;28;7011;-50
2021/12/14 02:04:07;;;;;;;;;;;;;;;;;;4145155;28;7191;-50
2021/12/14 02:06:28;;;;;;;;;;;;;;;;;;4145480;28;7015;-50
2021/12/14 02:08:54;;;;;;;;;;;;;;;;;;4144651;28;7203;-50
2021/12/14 02:11:15;;;;;;;;;;;;;;;;;;4145120;28;6990;-50
2021/12/14 02:13:39;;;;;;;;;;;;;;;;;;4132464;28;7175;-49
2021/12/14 02:16:04;;;;;;;;;;;;;;;;;;4145164;28;7423;-50
2021/12/14 02:18:26;;;;;;;;;;;;;;;;;;4144798;28;6987;-50
2021/12/14 02:20:49;;;;;;;;;;;;;;;;;;4144958;28;7031;-50
2021/12/14 02:23:10;;;;;;;;;;;;;;;;;;4145150;28;6986;-51
2021/12/14 02:25:31;;;;;;;;;;;;;;;;;;4144968;28;7205;-50
2021/12/14 02:27:53;;;;;;;;;;;;;;;;;;4132082;28;7082;-50
2021/12/14 02:30:15;;;;;;;;;;;;;;;;;;4144773;28;7015;-50
2021/12/14 02:32:36;;;;;;;;;;;;;;;;;;4144758;28;7007;-49
2021/12/14 02:35:00;;;;;;;;;;;;;;;;;;4144581;28;7299;-50
2021/12/14 02:37:23;;;;;;;;;;;;;;;;;;4144610;28;7002;-50
2021/12/14 02:40:00;;;;;;;;;;;;;;;;;;4144632;28;7019;-50
2021/12/14 02:42:24;;;;;;;;;;;;;;;;;;4144572;28;7011;-50
2021/12/14 02:44:46;;;;;;;;;;;;;;;;;;4144908;28;6983;-49
2021/12/14 02:47:08;;;;;;;;;;;;;;;;;;4145309;28;7191;-50
2021/12/14 02:49:30;;;;;;;;;;;;;;;;;;4144869;28;7053;-49
2021/12/14 02:51:51;;;;;;;;;;;;;;;;;;4144485;28;7053;-50
2021/12/14 02:54:17;;;;;;;;;;;;;;;;;;4144825;28;7003;-50
2021/12/14 02:56:40;;;;;;;;;;;;;;;;;;4144808;28;7068;-50
2021/12/14 02:59:02;;;;;;;;;;;;;;;;;;4144518;28;7393;-50
2021/12/14 03:01:23;;;;;;;;;;;;;;;;;;4145207;28;7057;-50
2021/12/14 03:03:45;;;;;;;;;;;;;;;;;;4144838;28;6998;-50
2021/12/14 03:06:09;;;;;;;;;;;;;;;;;;4144658;28;7002;-51
2021/12/14 03:08:32;;;;;;;;;;;;;;;;;;4144684;28;6991;-50
2021/12/14 03:10:59;;;;;;;;;;;;;;;;;;4144880;28;7007;-50
2021/12/14 03:13:21;;;;;;;;;;;;;;;;;;4132347;28;6990;-50
2021/12/14 03:15:47;;;;;;;;;;;;;;;;;;4132410;28;6998;-50
2021/12/14 03:18:09;;;;;;;;;;;;;;;;;;4132601;28;6994;-50
2021/12/14 03:20:31;;;;;;;;;;;;;;;;;;4132340;28;7128;-50
2021/12/14 03:22:53;;;;;;;;;;;;;;;;;;4147957;28;7007;-50
2021/12/14 03:25:15;;;;;;;;;;;;;;;;;;4135588;28;7006;-50
2021/12/14 03:27:38;;;;;;;;;;;;;;;;;;4148298;28;7101;-50
2021/12/14 03:30:00;;;;;;;;;;;;;;;;;;4147981;28;7038;-50
2021/12/14 03:32:23;;;;;;;;;;;;;;;;;;4147977;28;7037;-50
2021/12/14 03:34:44;;;;;;;;;;;;;;;;;;4147750;28;7189;-50
2021/12/14 03:37:07;;;;;;;;;;;;;;;;;;4147485;28;7075;-50
2021/12/14 03:39:29;;;;;;;;;;;;;;;;;;4147611;28;7256;-49
2021/12/14 03:41:53;;;;;;;;;;;;;;;;;;4147892;28;7003;-50
2021/12/14 03:44:17;;;;;;;;;;;;;;;;;;4147533;28;7003;-50
2021/12/14 03:46:39;;;;;;;;;;;;;;;;;;4147612;28;7049;-50
2021/12/14 03:49:01;;;;;;;;;;;;;;;;;;4147939;28;7010;-50
2021/12/14 03:51:22;;;;;;;;;;;;;;;;;;4147708;28;7015;-49
2021/12/14 03:53:44;;;;;;;;;;;;;;;;;;4147824;28;7062;-50
2021/12/14 03:56:06;;;;;;;;;;;;;;;;;;4135237;28;7155;-50
2021/12/14 03:58:30;;;;;;;;;;;;;;;;;;4147438;28;7006;-50
2021/12/14 04:00:54;;;;;;;;;;;;;;;;;;4147253;28;7199;-50
2021/12/14 04:03:16;;;;;;;;;;;;;;;;;;4134826;28;7006;-50
2021/12/14 04:05:53;;;;;;;;;;;;;;;;;;4146965;28;7006;-50
2021/12/14 04:08:15;;;;;;;;;;;;;;;;;;4147430;28;7094;-50
2021/12/14 04:10:37;;;;;;;;;;;;;;;;;;4147577;28;7002;-50
2021/12/14 04:12:58;;;;;;;;;;;;;;;;;;4147285;28;7045;-50
2021/12/14 04:15:20;;;;;;;;;;;;;;;;;;4147306;28;7057;-50
2021/12/14 04:17:43;;;;;;;;;;;;;;;;;;4147286;28;7167;-50
2021/12/14 04:20:09;;;;;;;;;;;;;;;;;;4147167;28;7116;-50
2021/12/14 04:22:32;;;;;;;;;;;;;;;;;;4146730;28;7151;-50
2021/12/14 04:24:56;;;;;;;;;;;;;;;;;;4147017;28;7175;-50
2021/12/14 04:27:19;;;;;;;;;;;;;;;;;;4147124;28;7002;-52
2021/12/14 04:29:40;;;;;;;;;;;;;;;;;;4147127;28;7023;-49
2021/12/14 04:32:03;;;;;;;;;;;;;;;;;;4146562;28;7026;-50
2021/12/14 04:34:25;;;;;;;;;;;;;;;;;;4149089;28;7711;-50
2021/12/14 04:36:47;;;;;;;;;;;;;;;;;;4149540;28;7025;-50
2021/12/14 04:39:31;;;;;;;;;;;;;;;;;;4149672;28;7200;-50
2021/12/14 04:52:53;;;;;;;;;;;;;;;;;;4134251;28;7003;-50
2021/12/14 04:55:15;;;;;;;;;;;;;;;;;;4147388;28;7010;-50
2021/12/14 04:57:37;;;;;;;;;;;;;;;;;;4134231;28;7006;-50
2021/12/14 05:00:00;;;;;;;;;;;;;;;;;;4134085;28;7047;-50
2021/12/14 05:02:26;;;;;;;;;;;;;;;;;;4142430;28;7089;-50
2021/12/14 05:05:00;;;;;;;;;;;;;;;;;;4152192;28;7003;-49
2021/12/14 05:07:48;;;;;;;;;;;;;;;;;;4163128;28;6995;-50
2021/12/14 05:10:14;;;;;;;;;;;;;;;;;;4149136;28;7002;-50
2021/12/14 05:12:37;;;;;;;;;;;;;;;;;;4149203;28;7014;-50
2021/12/14 05:15:07;;;;;;;;;;;;;;;;;;4148964;28;7089;-49
2021/12/14 05:17:31;;;;;;;;;;;;;;;;;;4146676;28;7010;-50
2021/12/14 05:19:53;;;;;;;;;;;;;;;;;;4162739;28;7021;-49
2021/12/14 05:22:16;;;;;;;;;;;;;;;;;;4162660;28;7011;-49
2021/12/14 05:24:45;;;;;;;;;;;;;;;;;;4162811;28;7057;-49
2021/12/14 05:27:07;;;;;;;;;;;;;;;;;;4149976;28;7160;-49
2021/12/14 05:29:34;;;;;;;;;;;;;;;;;;4162513;28;7006;-49
2021/12/14 05:31:58;;;;;;;;;;;;;;;;;;4162671;28;6990;-50
2021/12/14 05:34:21;;;;;;;;;;;;;;;;;;4162624;28;7047;-50
2021/12/14 05:36:44;;;;;;;;;;;;;;;;;;4129355;28;7123;-49
2021/12/14 05:39:25;;;;;;;;;;;;;;;;;;4132451;28;7006;-50
2021/12/14 05:45:10;;;;;;;;;;;;;;;;;;4101642;28;7137;-50
2021/12/14 05:47:31;;;;;;;;;;;;;;;;;;4119338;28;7004;-50
2021/12/14 05:49:58;;;;;;;;;;;;;;;;;;4146174;28;7097;-50
2021/12/14 05:52:21;;;;;;;;;;;;;;;;;;4132709;28;7006;-51
2021/12/14 05:54:44;;;;;;;;;;;;;;;;;;4132736;28;7025;-49
2021/12/14 05:57:06;;;;;;;;;;;;;;;;;;4145545;28;7470;-50
2021/12/14 05:59:28;;;;;;;;;;;;;;;;;;4145462;28;6994;-50
2021/12/14 06:01:50;;;;;;;;;;;;;;;;;;4145351;28;7019;-50
2021/12/14 06:04:13;;;;;;;;;;;;;;;;;;4145239;28;7019;-50
2021/12/14 06:06:35;;;;;;;;;;;;;;;;;;4145254;28;7007;-50
2021/12/14 06:09:00;;;;;;;;;;;;;;;;;;4145095;28;7006;-50
2021/12/14 06:11:29;;;;;;;;;;;;;;;;;;4145240;28;7015;-50
2021/12/14 06:13:51;;;;;;;;;;;;;;;;;;4145022;28;7015;-50
2021/12/14 06:16:21;;;;;;;;;;;;;;;;;;4132296;28;7094;-50
2021/12/14 06:18:42;;;;;;;;;;;;;;;;;;4132176;28;6987;-51
2021/12/14 06:21:30;;;;;;;;;;;;;;;;;;4132143;28;7006;-50
2021/12/14 06:23:52;;;;;;;;;;;;;;;;;;4144993;28;7073;-51
2021/12/14 06:26:19;;;;;;;;;;;;;;;;;;4145051;28;7011;-51
2021/12/14 06:28:42;;;;;;;;;;;;;;;;;;4144845;28;7064;-50
2021/12/14 06:31:04;;;;;;;;;;;;;;;;;;4144701;28;7006;-50
2021/12/14 06:33:28;;;;;;;;;;;;;;;;;;4144892;28;7152;-50
2021/12/14 06:35:50;;;;;;;;;;;;;;;;;;4144770;28;7045;-50
2021/12/14 06:38:28;;;;;;;;;;;;;;;;;;4144917;28;7006;-50
2021/12/14 06:40:51;;;;;;;;;;;;;;;;;;4144638;28;7093;-51
2021/12/14 06:43:13;;;;;;;;;;;;;;;;;;4144718;28;7006;-50
2021/12/14 06:45:39;;;;;;;;;;;;;;;;;;4145013;28;7060;-50
2021/12/14 06:48:03;;;;;;;;;;;;;;;;;;4144748;28;7439;-51
2021/12/14 06:50:26;;;;;;;;;;;;;;;;;;4144723;28;7038;-50
2021/12/14 06:52:54;;;;;;;;;;;;;;;;;;4144657;28;7204;-51
2021/12/14 06:55:36;;;;;;;;;;;;;;;;;;4130434;28;7037;-50
2021/12/14 06:58:17;;;;;;;;;;;;;;;;;;4131755;28;7119;-51
2021/12/14 07:00:45;;;;;;;;;;;;;;;;;;4144439;28;7006;-50
2021/12/14 07:03:07;;;;;;;;;;;;;;;;;;4144583;28;7006;-50
2021/12/14 07:05:36;;;;;;;;;;;;;;;;;;4144317;28;7010;-51
2021/12/14 07:07:58;;;;;;;;;;;;;;;;;;4144402;28;7057;-50
2021/12/14 07:10:19;;;;;;;;;;;;;;;;;;4144366;28;7166;-50
2021/12/14 07:12:41;;;;;;;;;;;;;;;;;;4131615;28;7114;-50
2021/12/14 07:15:09;;;;;;;;;;;;;;;;;;4131651;28;7047;-51
2021/12/14 07:17:40;;;;;;;;;;;;;;;;;;4131481;28;7018;-50
2021/12/14 07:20:02;;;;;;;;;;;;;;;;;;4131500;28;7003;-51
2021/12/14 07:22:37;;;;;;;;;;;;;;;;;;4131525;28;7164;-50
2021/12/14 07:24:58;;;;;;;;;;;;;;;;;;4131525;28;7104;-50
2021/12/14 07:27:24;;;;;;;;;;;;;;;;;;4131520;28;6994;-50
2021/12/14 07:29:45;;;;;;;;;;;;;;;;;;4131629;28;7164;-49
2021/12/14 07:32:07;;;;;;;;;;;;;;;;;;4131551;28;6987;-53
2021/12/14 07:34:29;;;;;;;;;;;;;;;;;;4131589;28;7007;-50
2021/12/14 07:36:51;;;;;;;;;;;;;;;;;;4131789;28;7181;-51
2021/12/14 07:39:13;;;;;;;;;;;;;;;;;;4131675;28;6998;-50
2021/12/14 07:41:35;;;;;;;;;;;;;;;;;;4131546;28;7010;-50
2021/12/14 07:44:01;;;;;;;;;;;;;;;;;;4144282;28;7010;-50
2021/12/14 07:46:25;;;;;;;;;;;;;;;;;;4144253;28;7148;-50
2021/12/14 07:48:49;;;;;;;;;;;;;;;;;;4131242;28;7022;-50
2021/12/14 07:51:12;;;;;;;;;;;;;;;;;;4143963;28;7019;-50
2021/12/14 07:53:33;;;;;;;;;;;;;;;;;;4131546;28;7407;-52
2021/12/14 07:55:54;;;;;;;;;;;;;;;;;;4131403;28;7165;-50
2021/12/14 07:58:16;;;;;;;;;;;;;;;;;;4131292;28;7129;-50
2021/12/14 08:00:40;;;;;;;;;;;;;;;;;;4131194;28;7367;-50
2021/12/14 08:03:01;;;;;;;;;;;;;;;;;;4131186;28;7057;-50
2021/12/14 08:05:23;;;;;;;;;;;;;;;;;;4131452;28;7006;-50
2021/12/14 08:07:47;;;;;;;;;;;;;;;;;;4132923;28;7003;-50
2021/12/14 08:10:12;;;;;;;;;;;;;;;;;;4134211;28;7003;-50
2021/12/14 08:12:36;;;;;;;;;;;;;;;;;;4134364;28;7174;-50
2021/12/14 08:15:05;;;;;;;;;;;;;;;;;;4134173;28;7015;-50
2021/12/14 08:17:26;;;;;;;;;;;;;;;;;;4134228;28;7023;-50
2021/12/14 08:19:49;;;;;;;;;;;;;;;;;;4134243;28;7042;-50
2021/12/14 08:22:10;;;;;;;;;;;;;;;;;;4134000;28;7430;-50
2021/12/14 08:24:33;;;;;;;;;;;;;;;;;;4134028;28;6986;-50
2021/12/14 08:26:55;;;;;;;;;;;;;;;;;;4134168;28;7256;-50
2021/12/14 08:29:17;;;;;;;;;;;;;;;;;;4133935;28;7006;-50
2021/12/14 08:31:40;;;;;;;;;;;;;;;;;;4133850;28;7065;-50
2021/12/14 08:34:03;;;;;;;;;;;;;;;;;;4133881;28;6986;-50
2021/12/14 08:36:24;;;;;;;;;;;;;;;;;;4133697;28;7475;-50
2021/12/14 08:38:45;;;;;;;;;;;;;;;;;;4133947;28;7007;-50
2021/12/14 08:41:15;;;;;;;;;;;;;;;;;;4133932;28;7148;-50
2021/12/14 08:43:36;;;;;;;;;;;;;;;;;;4134277;28;6999;-50
2021/12/14 08:46:01;;;;;;;;;;;;;;;;;;4133706;28;7002;-50
2021/12/14 08:48:23;;;;;;;;;;;;;;;;;;4133726;28;7501;-50
2021/12/14 08:50:46;;;;;;;;;;;;;;;;;;4133223;28;7093;-50
2021/12/14 08:53:08;;;;;;;;;;;;;;;;;;4133586;28;6990;-50
2021/12/14 08:55:31;;;;;;;;;;;;;;;;;;4133528;28;7434;-51
2021/12/14 08:57:54;;;;;;;;;;;;;;;;;;4133458;28;7210;-50
2021/12/14 09:00:18;;;;;;;;;;;;;;;;;;4133627;28;7223;-50
2021/12/14 09:02:39;;;;;;;;;;;;;;;;;;4133524;28;7007;-50
2021/12/14 09:05:01;;;;;;;;;;;;;;;;;;4133302;28;7018;-50
2021/12/14 09:07:24;;;;;;;;;;;;;;;;;;4133528;28;7166;-51
2021/12/14 09:09:45;;;;;;;;;;;;;;;;;;4133200;28;6991;-50
2021/12/14 09:12:08;;;;;;;;;;;;;;;;;;4133585;28;6987;-50
2021/12/14 09:14:30;;;;;;;;;;;;;;;;;;4133454;28;7501;-51
2021/12/14 09:16:54;;;;;;;;;;;;;;;;;;4133391;28;6986;-50
2021/12/14 09:19:16;;;;;;;;;;;;;;;;;;4132611;28;7022;-50
2021/12/14 09:21:37;;;;;;;;;;;;;;;;;;4146048;28;7002;-51
2021/12/14 09:23:59;;;;;;;;;;;;;;;;;;4133518;28;7120;-50
2021/12/14 09:26:21;;;;;;;;;;;;;;;;;;4133283;28;7010;-50
2021/12/14 09:28:42;;;;;;;;;;;;;;;;;;4133041;28;7033;-50
2021/12/14 09:31:06;;;;;;;;;;;;;;;;;;4132952;28;7172;-51
2021/12/14 09:33:27;;;;;;;;;;;;;;;;;;4132963;28;7003;-50
2021/12/14 09:35:49;;;;;;;;;;;;;;;;;;4132967;28;7014;-50
2021/12/14 09:38:11;;;;;;;;;;;;;;;;;;4132969;28;7446;-50
2021/12/14 09:40:34;;;;;;;;;;;;;;;;;;4145467;28;7593;-50
2021/12/14 09:42:56;;;;;;;;;;;;;;;;;;4132667;28;7006;-51
2021/12/14 09:45:18;;;;;;;;;;;;;;;;;;4132886;28;7167;-50
2021/12/14 09:47:40;;;;;;;;;;;;;;;;;;4132873;28;7010;-50
2021/12/14 09:50:02;;;;;;;;;;;;;;;;;;4132649;28;7023;-51
2021/12/14 09:52:24;;;;;;;;;;;;;;;;;;4132571;28;7246;-50
2021/12/14 09:54:45;;;;;;;;;;;;;;;;;;4132606;28;7010;-50
2021/12/14 09:57:08;;;;;;;;;;;;;;;;;;4132715;28;7177;-50
2021/12/14 09:59:30;;;;;;;;;;;;;;;;;;4132545;28;6999;-50
2021/12/14 10:01:52;;;;;;;;;;;;;;;;;;4132593;28;7002;-51
2021/12/14 10:04:16;;;;;;;;;;;;;;;;;;4132576;28;7046;-51
2021/12/14 10:06:37;;;;;;;;;;;;;;;;;;4132579;28;7170;-51
2021/12/14 10:09:02;;;;;;;;;;;;;;;;;;4132396;28;7041;-50
2021/12/14 10:11:27;;;;;;;;;;;;;;;;;;4132393;28;7032;-50
2021/12/14 10:13:49;;;;;;;;;;;;;;;;;;4132318;28;7458;-50
2021/12/14 10:16:11;;;;;;;;;;;;;;;;;;4132301;28;7006;-50
2021/12/14 10:18:33;;;;;;;;;;;;;;;;;;4132202;28;6982;-50
2021/12/14 10:20:56;;;;;;;;;;;;;;;;;;4147064;28;7426;-50
2021/12/14 10:23:17;;;;;;;;;;;;;;;;;;4132331;28;7030;-50
2021/12/14 10:25:38;;;;;;;;;;;;;;;;;;4132290;28;6987;-50
2021/12/14 10:28:00;;;;;;;;;;;;;;;;;;4132190;28;7058;-51
2021/12/14 10:30:22;;;;;;;;;;;;;;;;;;4131494;28;7010;-51
2021/12/14 10:32:43;;;;;;;;;;;;;;;;;;4132070;28;7043;-51
2021/12/14 10:35:06;;;;;;;;;;;;;;;;;;4132278;28;7192;-50
2021/12/14 10:37:38;;;;;;;;;;;;;;;;;;4132113;28;7073;-50
2021/12/14 10:45:13;;;;;;;;;;;;;;;;;;4131966;28;7185;-50
2021/12/14 10:47:34;;;;;;;;;;;;;;;;;;4131953;28;7434;-51
2021/12/14 10:49:56;;;;;;;;;;;;;;;;;;4131830;28;7180;-52
2021/12/14 10:52:19;;;;;;;;;;;;;;;;;;4131465;28;7026;-50
2021/12/14 10:54:42;;;;;;;;;;;;;;;;;;4131962;28;7030;-50
2021/12/14 10:57:04;;;;;;;;;;;;;;;;;;4132002;28;7049;-50
2021/12/14 10:59:26;;;;;;;;;;;;;;;;;;4131737;28;6987;-51
2021/12/14 11:01:50;;;;;;;;;;;;;;;;;;4131492;28;7167;-52
2021/12/14 11:04:12;;;;;;;;;;;;;;;;;;4131941;28;7019;-50
2021/12/14 11:06:34;;;;;;;;;;;;;;;;;;4131802;28;7094;-50
2021/12/14 11:09:38;;;;;;;;;;;;;;;;;;4131632;28;7034;-50
2021/12/14 11:11:43;;;;;;;;;;;;;;;;;;4131569;28;7451;-50
2021/12/14 11:14:05;;;;;;;;;;;;;;;;;;4131565;28;7006;-51
2021/12/14 11:16:34;;;;;;;;;;;;;;;;;;4144480;28;7219;-50
2021/12/14 11:18:54;;;;;;;;;;;;;;;;;;4131686;28;7010;-50
2021/12/14 11:21:16;;;;;;;;;;;;;;;;;;4131496;28;7048;-50
2021/12/14 11:23:40;;;;;;;;;;;;;;;;;;4131781;28;7007;-50
2021/12/14 11:26:03;;;;;;;;;;;;;;;;;;4131692;28;7006;-50
2021/12/14 11:28:29;;;;;;;;;;;;;;;;;;4131656;28;7006;-50
2021/12/14 11:30:51;;;;;;;;;;;;;;;;;;4131460;28;7002;-50
2021/12/14 11:33:13;;;;;;;;;;;;;;;;;;4131074;28;6979;-50
2021/12/14 11:35:35;;;;;;;;;;;;;;;;;;4130642;28;7172;-50
2021/12/14 11:37:57;;;;;;;;;;;;;;;;;;4130647;28;7073;-51
2021/12/14 11:40:21;;;;;;;;;;;;;;;;;;4143803;28;6991;-50
2021/12/14 11:42:42;;;;;;;;;;;;;;;;;;4132137;28;7015;-50
2021/12/14 11:45:06;;;;;;;;;;;;;;;;;;4134047;28;7015;-50
2021/12/14 11:47:46;;;;;;;;;;;;;;;;;;4134666;28;7018;-50
2021/12/14 11:50:11;;;;;;;;;;;;;;;;;;4134777;28;7006;-50
2021/12/14 11:52:38;;;;;;;;;;;;;;;;;;4134284;28;7981;-50
2021/12/14 11:54:59;;;;;;;;;;;;;;;;;;4134484;28;7061;-50
2021/12/14 11:57:20;;;;;;;;;;;;;;;;;;4134380;28;7131;-50
2021/12/14 11:59:42;;;;;;;;;;;;;;;;;;4134145;28;7150;-50
2021/12/14 12:02:05;;;;;;;;;;;;;;;;;;4133754;28;7002;-50
2021/12/14 12:04:34;;;;;;;;;;;;;;;;;;4134304;28;7002;-50
2021/12/14 12:09:36;;;;;;;;;;;;;;;;;;4134198;28;7148;-50
2021/12/14 12:11:58;;;;;;;;;;;;;;;;;;4134029;28;7054;-50
2021/12/14 12:14:23;;;;;;;;;;;;;;;;;;4134152;28;7034;-50
2021/12/14 12:16:44;;;;;;;;;;;;;;;;;;4134160;28;7002;-50
2021/12/14 12:19:08;;;;;;;;;;;;;;;;;;4134167;28;7003;-50
2021/12/14 12:21:29;;;;;;;;;;;;;;;;;;4134047;28;7033;-50
2021/12/14 12:23:50;;;;;;;;;;;;;;;;;;4134036;28;7481;-50
2021/12/14 12:26:11;;;;;;;;;;;;;;;;;;4133962;28;7010;-51
2021/12/14 12:28:34;;;;;;;;;;;;;;;;;;4134053;28;7033;-51
2021/12/14 12:30:55;;;;;;;;;;;;;;;;;;4134139;28;7034;-50
2021/12/14 12:33:18;;;;;;;;;;;;;;;;;;4134066;28;7026;-50
2021/12/14 12:35:41;;;;;;;;;;;;;;;;;;4133955;28;6994;-51
2021/12/14 12:38:18;;;;;;;;;;;;;;;;;;4133484;28;7026;-50
2021/12/14 12:40:46;;;;;;;;;;;;;;;;;;4133595;28;7199;-51
2021/12/14 12:43:14;;;;;;;;;;;;;;;;;;4133543;28;7002;-51
2021/12/14 12:45:36;;;;;;;;;;;;;;;;;;4133582;28;8168;-50
2021/12/14 12:47:58;;;;;;;;;;;;;;;;;;4133781;28;7018;-50
2021/12/14 12:50:19;;;;;;;;;;;;;;;;;;4133578;28;7026;-50
2021/12/14 12:52:43;;;;;;;;;;;;;;;;;;4133353;28;7049;-50
2021/12/14 12:55:06;;;;;;;;;;;;;;;;;;4133030;28;7006;-50
2021/12/14 12:57:36;;;;;;;;;;;;;;;;;;4133832;28;7002;-50
2021/12/14 13:00:00;;;;;;;;;;;;;;;;;;4133752;28;7041;-50
2021/12/14 13:02:22;;;;;;;;;;;;;;;;;;4133635;28;6995;-50
2021/12/14 13:04:43;;;;;;;;;;;;;;;;;;4133252;28;6987;-51
2021/12/14 13:07:06;;;;;;;;;;;;;;;;;;4133841;28;7174;-52
2021/12/14 13:09:30;;;;;;;;;;;;;;;;;;4147732;28;7003;-51
2021/12/14 13:11:52;;;;;;;;;;;;;;;;;;4133042;28;7018;-50
2021/12/14 13:14:13;;;;;;;;;;;;;;;;;;4133623;28;7040;-50
2021/12/14 13:16:35;;;;;;;;;;;;;;;;;;4133498;28;7006;-50
2021/12/14 13:18:57;;;;;;;;;;;;;;;;;;4133176;28;7005;-50
2021/12/14 13:21:21;;;;;;;;;;;;;;;;;;4133525;28;7478;-50
2021/12/14 13:23:44;;;;;;;;;;;;;;;;;;4133581;28;7140;-51
2021/12/14 13:26:20;;;;;;;;;;;;;;;;;;4133126;28;7033;-51
2021/12/14 13:28:41;;;;;;;;;;;;;;;;;;4133090;28;7006;-52
2021/12/14 13:31:02;;;;;;;;;;;;;;;;;;4133277;28;7076;-50
2021/12/14 13:33:24;;;;;;;;;;;;;;;;;;4133928;28;6983;-50
2021/12/14 13:35:46;;;;;;;;;;;;;;;;;;4133059;28;7011;-51
2021/12/14 13:38:07;;;;;;;;;;;;;;;;;;4133093;28;7164;-51
2021/12/14 13:40:29;;;;;;;;;;;;;;;;;;4132753;28;7053;-51
2021/12/14 13:42:53;;;;;;;;;;;;;;;;;;4133010;28;7002;-50
2021/12/14 13:45:15;;;;;;;;;;;;;;;;;;4133035;28;7019;-50
2021/12/14 13:47:36;;;;;;;;;;;;;;;;;;4132866;28;7023;-51
2021/12/14 13:49:59;;;;;;;;;;;;;;;;;;4132986;28;7020;-50
2021/12/14 13:52:20;;;;;;;;;;;;;;;;;;4132823;28;7060;-50
2021/12/14 13:55:00;;;;;;;;;;;;;;;;;;4132822;28;6994;-50
2021/12/14 13:57:21;;;;;;;;;;;;;;;;;;4132723;28;7537;-50
2021/12/14 13:59:43;;;;;;;;;;;;;;;;;;4132631;28;7011;-50
2021/12/14 14:02:05;;;;;;;;;;;;;;;;;;4142089;28;7010;-50
2021/12/14 14:04:29;;;;;;;;;;;;;;;;;;4144069;28;7022;-50
2021/12/14 14:06:51;;;;;;;;;;;;;;;;;;4132683;28;7006;-50
2021/12/14 14:09:14;;;;;;;;;;;;;;;;;;4132790;28;7038;-51
2021/12/14 14:11:36;;;;;;;;;;;;;;;;;;4132637;28;7006;-51
2021/12/14 14:13:58;;;;;;;;;;;;;;;;;;4132636;28;7046;-50
2021/12/14 14:16:20;;;;;;;;;;;;;;;;;;4132741;28;7172;-50
2021/12/14 14:18:42;;;;;;;;;;;;;;;;;;4132547;28;7148;-51
2021/12/14 14:21:05;;;;;;;;;;;;;;;;;;4132519;28;7065;-51
2021/12/14 14:23:27;;;;;;;;;;;;;;;;;;4132352;28;7011;-51
2021/12/14 14:25:50;;;;;;;;;;;;;;;;;;4132466;28;6991;-50
2021/12/14 14:28:23;;;;;;;;;;;;;;;;;;4132500;28;7145;-51
2021/12/14 14:30:45;;;;;;;;;;;;;;;;;;4132302;28;7077;-50
2021/12/14 14:33:18;;;;;;;;;;;;;;;;;;4132330;28;6998;-50
2021/12/14 14:35:40;;;;;;;;;;;;;;;;;;4132298;28;6994;-50
2021/12/14 14:38:01;;;;;;;;;;;;;;;;;;4145474;28;7002;-51
2021/12/14 14:40:22;;;;;;;;;;;;;;;;;;4148320;28;7174;-50
2021/12/14 14:42:49;;;;;;;;;;;;;;;;;;4148529;28;6994;-50
2021/12/14 14:45:14;;;;;;;;;;;;;;;;;;4141975;28;7188;-50
2021/12/14 14:47:35;;;;;;;;;;;;;;;;;;4132285;28;7006;-50
2021/12/14 14:50:09;;;;;;;;;;;;;;;;;;4132087;28;7002;-51
2021/12/14 14:52:31;;;;;;;;;;;;;;;;;;4132128;28;7061;-50
2021/12/14 14:54:53;;;;;;;;;;;;;;;;;;4139961;28;7182;-50
2021/12/14 14:57:29;;;;;;;;;;;;;;;;;;4148025;28;7160;-50
2021/12/14 15:00:06;;;;;;;;;;;;;;;;;;4148063;28;7057;-51
2021/12/14 15:02:44;;;;;;;;;;;;;;;;;;4148289;28;7430;-50
2021/12/14 15:05:05;;;;;;;;;;;;;;;;;;4148105;28;7006;-51
2021/12/14 15:07:32;;;;;;;;;;;;;;;;;;4148017;28;7426;-50
2021/12/14 15:10:03;;;;;;;;;;;;;;;;;;4136733;28;7006;-51
2021/12/14 15:12:24;;;;;;;;;;;;;;;;;;4139916;28;7119;-51
2021/12/14 15:14:45;;;;;;;;;;;;;;;;;;4148522;28;7010;-51
2021/12/14 15:17:11;;;;;;;;;;;;;;;;;;4147733;28;7137;-52
2021/12/14 15:19:36;;;;;;;;;;;;;;;;;;4148274;28;7006;-51
2021/12/14 15:22:01;;;;;;;;;;;;;;;;;;4148212;28;7004;-51
2021/12/14 15:24:27;;;;;;;;;;;;;;;;;;4148365;28;7019;-51
2021/12/14 15:27:03;;;;;;;;;;;;;;;;;;4148361;28;7426;-51
2021/12/14 15:29:25;;;;;;;;;;;;;;;;;;4148409;28;7027;-50
2021/12/14 15:31:48;;;;;;;;;;;;;;;;;;4148394;28;6998;-51
2021/12/14 15:34:09;;;;;;;;;;;;;;;;;;4148306;28;7171;-51
2021/12/14 15:36:31;;;;;;;;;;;;;;;;;;4148127;28;7011;-51
2021/12/14 15:38:58;;;;;;;;;;;;;;;;;;4148441;28;7183;-51
2021/12/14 15:41:25;;;;;;;;;;;;;;;;;;4148323;28;6990;-51
2021/12/14 15:43:48;;;;;;;;;;;;;;;;;;4148425;28;7144;-51
2021/12/14 15:46:19;;;;;;;;;;;;;;;;;;4148589;28;7002;-51
2021/12/14 15:48:41;;;;;;;;;;;;;;;;;;4148344;28;7018;-51
2021/12/14 15:51:17;;;;;;;;;;;;;;;;;;4147229;28;7018;-51
2021/12/14 15:53:38;;;;;;;;;;;;;;;;;;4143044;28;7065;-51
2021/12/14 15:56:01;;;;;;;;;;;;;;;;;;4147758;28;7164;-51
2021/12/14 15:58:25;;;;;;;;;;;;;;;;;;4147778;28;7125;-51
2021/12/14 16:00:46;;;;;;;;;;;;;;;;;;4147655;28;7010;-52
2021/12/14 16:03:07;;;;;;;;;;;;;;;;;;4147711;28;7203;-51
2021/12/14 16:05:29;;;;;;;;;;;;;;;;;;4146025;28;7148;-51
2021/12/14 16:07:50;;;;;;;;;;;;;;;;;;4141133;28;7207;-52
2021/12/14 16:10:19;;;;;;;;;;;;;;;;;;4131890;28;7034;-51
2021/12/14 16:15:22;;;;;;;;;;;;;;;;;;4131505;28;7006;-51
2021/12/14 16:17:44;;;;;;;;;;;;;;;;;;4131586;28;7174;-52
2021/12/14 16:20:06;;;;;;;;;;;;;;;;;;4131332;28;7026;-51
2021/12/14 16:22:27;;;;;;;;;;;;;;;;;;4131574;28;7176;-51
2021/12/14 16:24:49;;;;;;;;;;;;;;;;;;4131559;28;7026;-51
2021/12/14 16:27:11;;;;;;;;;;;;;;;;;;4130932;28;7041;-51
2021/12/14 16:29:32;;;;;;;;;;;;;;;;;;4132781;28;7430;-51
2021/12/14 16:31:55;;;;;;;;;;;;;;;;;;4140836;28;7057;-51
2021/12/14 16:34:17;;;;;;;;;;;;;;;;;;4150566;28;7109;-51
2021/12/14 16:36:38;;;;;;;;;;;;;;;;;;4150751;28;7010;-51
2021/12/14 16:39:08;;;;;;;;;;;;;;;;;;4150514;28;7002;-51
2021/12/14 16:41:30;;;;;;;;;;;;;;;;;;4150692;28;7041;-51
2021/12/14 16:43:54;;;;;;;;;;;;;;;;;;4150661;28;7010;-51
2021/12/14 16:46:22;;;;;;;;;;;;;;;;;;4149457;28;7002;-51
2021/12/14 16:48:46;;;;;;;;;;;;;;;;;;4148708;28;7435;-51
2021/12/14 16:51:08;;;;;;;;;;;;;;;;;;4146139;28;7181;-51
2021/12/14 16:53:29;;;;;;;;;;;;;;;;;;4150227;28;7003;-51
2021/12/14 16:55:50;;;;;;;;;;;;;;;;;;4150347;28;7023;-52
2021/12/14 16:58:13;;;;;;;;;;;;;;;;;;4150379;28;6994;-51
2021/12/14 17:00:35;;;;;;;;;;;;;;;;;;4150298;28;7583;-51
2021/12/14 17:02:56;;;;;;;;;;;;;;;;;;4150194;28;7406;-51
2021/12/14 17:05:20;;;;;;;;;;;;;;;;;;4150043;28;7003;-51
2021/12/14 17:07:41;;;;;;;;;;;;;;;;;;4165288;28;6995;-51
2021/12/14 17:10:04;;;;;;;;;;;;;;;;;;4166664;28;7014;-52